createdAt,value
2023-03-07T00:00:41.888Z,97717.00
2023-03-07T00:03:17.040Z,97714.03
2023-03-07T00:05:44.818Z,97715.09
2023-03-07T00:08:12.830Z,97716.92
2023-03-07T00:10:40.697Z,97719.98
2023-03-07T00:13:08.964Z,97722.38
2023-03-07T00:15:38.319Z,97718.07
2023-03-07T00:18:07.452Z,97717.37
2023-03-07T00:20:35.227Z,97718.96
2023-03-07T00:23:04.828Z,97717.84
2023-03-07T00:25:32.414Z,97717.47
2023-03-07T00:28:00.007Z,97719.13
2023-03-07T00:30:27.832Z,97715.91
2023-03-07T00:32:55.614Z,97715.06
2023-03-07T00:35:23.226Z,97715.46
2023-03-07T00:37:50.843Z,97714.58
2023-03-07T00:40:18.451Z,97713.05
2023-03-07T00:42:46.109Z,97707.85
2023-03-07T00:45:13.872Z,97706.31
2023-03-07T00:47:41.494Z,97703.78
2023-03-07T00:50:09.821Z,97702.95
2023-03-07T00:52:37.438Z,97702.33
2023-03-07T00:55:06.223Z,97698.68
2023-03-07T00:57:34.079Z,97699.39
2023-03-07T01:00:01.724Z,97698.52
2023-03-07T01:02:30.006Z,97696.50
2023-03-07T01:04:57.756Z,97693.39
2023-03-07T01:07:25.348Z,97689.69
2023-03-07T01:09:53.281Z,97689.51
2023-03-07T01:12:21.217Z,97684.27
2023-03-07T01:14:51.922Z,97681.52
2023-03-07T01:17:19.960Z,97682.27
2023-03-07T01:19:47.590Z,97680.02
2023-03-07T01:22:15.232Z,97678.86
2023-03-07T01:24:43.091Z,97678.11
2023-03-07T01:27:10.845Z,97676.41
2023-03-07T01:29:38.732Z,97673.44
2023-03-07T01:32:06.626Z,97675.92
2023-03-07T01:34:34.490Z,97675.14
2023-03-07T01:37:02.170Z,97674.23
2023-03-07T01:39:30.519Z,97676.47
2023-03-07T01:42:02.322Z,97661.73
2023-03-07T01:44:30.865Z,97672.68
2023-03-07T01:47:00.065Z,97673.92
2023-03-07T01:49:43.027Z,97669.25
2023-03-07T01:52:33.162Z,97667.77
2023-03-07T01:55:08.218Z,97666.43
2023-03-07T01:57:37.791Z,97663.38
2023-03-07T02:00:10.812Z,97663.70
2023-03-07T02:02:44.408Z,97664.70
2023-03-07T02:05:16.558Z,97660.30
2023-03-07T02:07:47.111Z,97659.08
2023-03-07T02:10:19.669Z,97656.89
2023-03-07T02:13:44.274Z,97659.66
2023-03-07T02:16:39.180Z,97660.73
2023-03-07T02:19:19.567Z,97661.06
2023-03-07T02:22:00.218Z,97658.61
2023-03-07T02:24:36.542Z,97657.77
2023-03-07T02:27:05.975Z,97653.49
2023-03-07T02:29:33.830Z,97657.56
2023-03-07T02:32:02.437Z,97655.82
2023-03-07T02:34:31.414Z,97660.60
2023-03-07T02:37:20.710Z,97662.59
2023-03-07T02:39:48.763Z,97663.97
2023-03-07T02:42:22.545Z,97662.34
2023-03-07T02:44:58.799Z,97661.46
2023-03-07T02:47:28.131Z,97659.38
2023-03-07T02:49:56.158Z,97651.98
2023-03-07T02:52:24.573Z,97653.62
2023-03-07T02:54:52.266Z,97654.15
2023-03-07T02:57:20.300Z,97649.67
2023-03-07T02:59:47.984Z,97647.89
2023-03-07T03:02:15.648Z,97647.55
2023-03-07T03:04:43.533Z,97644.08
2023-03-07T03:07:11.214Z,97645.87
2023-03-07T03:09:38.820Z,97648.39
2023-03-07T03:12:06.815Z,97640.35
2023-03-07T03:14:35.063Z,97637.91
2023-03-07T03:17:03.895Z,97638.20
2023-03-07T03:19:31.586Z,97636.93
2023-03-07T03:22:14.366Z,97639.25
2023-03-07T03:24:45.500Z,97633.50
2023-03-07T03:27:15.359Z,97630.80
2023-03-07T03:29:44.595Z,97625.29
2023-03-07T03:32:12.931Z,97624.38
2023-03-07T03:34:41.117Z,97623.06
2023-03-07T03:37:08.996Z,97622.77
2023-03-07T03:39:37.608Z,97622.34
2023-03-07T03:42:06.302Z,97620.83
2023-03-07T03:44:34.448Z,97620.33
2023-03-07T03:47:04.240Z,97617.68
2023-03-07T03:49:33.142Z,97615.72
2023-03-07T03:52:01.026Z,97617.85
2023-03-07T03:54:28.915Z,97617.73
2023-03-07T03:56:57.860Z,97617.63
2023-03-07T03:59:25.531Z,97615.90
2023-03-07T04:01:55.088Z,97610.97
2023-03-07T04:04:23.243Z,97612.29
2023-03-07T04:06:51.003Z,97613.45
2023-03-07T04:09:18.670Z,97612.05
2023-03-07T04:11:48.320Z,97611.43
2023-03-07T04:14:16.239Z,97613.70
2023-03-07T04:16:43.978Z,97612.71
2023-03-07T04:19:13.098Z,97609.14
2023-03-07T04:21:42.030Z,97607.45
2023-03-07T04:24:09.947Z,97609.08
2023-03-07T04:26:37.849Z,97607.59
2023-03-07T04:29:05.581Z,97603.62
2023-03-07T04:31:36.810Z,97604.34
2023-03-07T04:34:06.135Z,97603.13
2023-03-07T04:36:34.237Z,97602.16
2023-03-07T04:39:01.841Z,97599.89
2023-03-07T04:41:30.917Z,97599.76
2023-03-07T04:44:02.538Z,97606.75
2023-03-07T04:46:30.279Z,97605.47
2023-03-07T04:48:57.936Z,97610.16
2023-03-07T04:51:26.083Z,97607.64
2023-03-07T04:53:53.722Z,97610.74
2023-03-07T04:56:21.413Z,97603.64
2023-03-07T04:58:49.182Z,97602.06
2023-03-07T05:01:18.853Z,97597.96
2023-03-07T05:03:47.446Z,97595.13
2023-03-07T05:06:17.021Z,97597.77
2023-03-07T05:08:48.967Z,97590.70
2023-03-07T05:11:17.203Z,97593.62
2023-03-07T05:13:45.132Z,97592.02
2023-03-07T05:16:17.626Z,97594.06
2023-03-07T05:18:45.508Z,97593.95
2023-03-07T05:21:13.442Z,97592.93
2023-03-07T05:23:41.444Z,97592.00
2023-03-07T05:26:10.092Z,97590.05
2023-03-07T05:28:38.268Z,97587.52
2023-03-07T05:31:05.909Z,97589.61
2023-03-07T05:33:33.911Z,97579.34
2023-03-07T05:36:02.240Z,97578.05
2023-03-07T05:38:30.665Z,97573.20
2023-03-07T05:40:58.337Z,97573.91
2023-03-07T05:43:26.474Z,97574.15
2023-03-07T05:45:54.397Z,97571.79
2023-03-07T05:48:22.234Z,97566.87
2023-03-07T05:50:50.391Z,97566.45
2023-03-07T05:53:19.644Z,97560.62
2023-03-07T05:55:47.901Z,97562.88
2023-03-07T05:58:17.699Z,97557.73
2023-03-07T06:00:47.022Z,97556.33
2023-03-07T06:03:15.441Z,97554.35
2023-03-07T06:05:43.380Z,97552.13
2023-03-07T06:08:11.047Z,97553.27
2023-03-07T06:10:40.197Z,97545.21
2023-03-07T06:13:19.836Z,97543.53
2023-03-07T06:15:54.406Z,97548.16
2023-03-07T06:18:24.664Z,97544.09
2023-03-07T06:21:00.836Z,97550.44
2023-03-07T06:23:31.416Z,97543.52
2023-03-07T06:26:00.324Z,97543.05
2023-03-07T06:28:29.563Z,97542.16
2023-03-07T06:30:58.003Z,97539.89
2023-03-07T06:33:25.696Z,97532.35
2023-03-07T06:35:53.581Z,97526.74
2023-03-07T06:38:21.371Z,97525.67
2023-03-07T06:40:56.557Z,97525.27
2023-03-07T06:43:24.550Z,97527.56
2023-03-07T06:45:52.448Z,97525.76
2023-03-07T06:48:20.990Z,97524.27
2023-03-07T06:50:48.794Z,97525.54
2023-03-07T06:53:16.685Z,97522.83
2023-03-07T06:55:49.598Z,97518.17
2023-03-07T06:58:17.586Z,97513.46
2023-03-07T07:00:45.851Z,97510.00
2023-03-07T07:03:14.786Z,97506.86
2023-03-07T07:05:42.654Z,97499.09
2023-03-07T07:08:10.419Z,97490.90
2023-03-07T07:10:38.356Z,97486.45
2023-03-07T07:13:06.699Z,97486.05
2023-03-07T07:15:34.543Z,97481.75
2023-03-07T07:18:02.396Z,97488.37
2023-03-07T07:20:33.140Z,97485.57
2023-03-07T07:23:01.199Z,97484.36
2023-03-07T07:25:28.833Z,97478.64
2023-03-07T07:27:56.589Z,97478.98
2023-03-07T07:30:24.782Z,97485.91
2023-03-07T07:32:52.496Z,97482.41
2023-03-07T07:35:22.274Z,97483.12
2023-03-07T07:37:49.986Z,97484.41
2023-03-07T07:40:17.836Z,97486.44
2023-03-07T07:42:54.636Z,97482.48
2023-03-07T07:45:42.154Z,97476.74
2023-03-07T07:48:10.489Z,97472.98
2023-03-07T07:50:38.611Z,97476.21
2023-03-07T07:53:06.647Z,97472.77
2023-03-07T07:55:34.943Z,97464.72
2023-03-07T07:58:02.669Z,97460.14
2023-03-07T08:00:31.131Z,97456.29
2023-03-07T08:02:59.157Z,97452.63
2023-03-07T08:05:26.866Z,97444.84
2023-03-07T08:07:54.554Z,97437.02
2023-03-07T08:10:22.226Z,97428.33
2023-03-07T08:12:53.461Z,97422.77
2023-03-07T08:15:24.217Z,97426.11
2023-03-07T08:17:52.611Z,97423.19
2023-03-07T08:20:22.429Z,97417.69
2023-03-07T08:22:53.199Z,97423.27
2023-03-07T08:25:23.723Z,97420.10
2023-03-07T08:27:55.590Z,97421.09
2023-03-07T08:30:25.522Z,97426.98
2023-03-07T08:32:54.236Z,97426.63
2023-03-07T08:35:22.896Z,97421.34
2023-03-07T08:37:54.589Z,97419.93
2023-03-07T08:40:24.813Z,97417.09
2023-03-07T08:42:54.976Z,97414.66
2023-03-07T08:45:23.768Z,97413.27
2023-03-07T08:47:55.508Z,97412.46
2023-03-07T08:50:25.922Z,97415.40
2023-03-07T08:52:53.752Z,97414.27
2023-03-07T08:55:21.387Z,97416.45
2023-03-07T08:57:49.027Z,97419.53
2023-03-07T09:00:17.865Z,97416.05
2023-03-07T09:02:45.656Z,97414.61
2023-03-07T09:05:14.224Z,97413.42
2023-03-07T09:07:42.414Z,97413.26
2023-03-07T09:10:11.634Z,97409.95
2023-03-07T09:12:39.261Z,97409.64
2023-03-07T09:15:08.671Z,97403.17
2023-03-07T09:17:36.339Z,97393.21
2023-03-07T09:20:06.178Z,97393.66
2023-03-07T09:22:33.773Z,97388.69
2023-03-07T09:25:01.682Z,97383.17
2023-03-07T09:27:29.330Z,97379.56
2023-03-07T09:29:56.897Z,97373.53
2023-03-07T09:32:24.515Z,97373.54
2023-03-07T09:34:53.169Z,97367.98
2023-03-07T09:37:20.828Z,97362.14
2023-03-07T09:39:51.351Z,97358.75
2023-03-07T09:42:29.899Z,97356.29
2023-03-07T09:45:03.767Z,97351.71
2023-03-07T09:48:24.759Z,97339.74
2023-03-07T09:50:54.875Z,97329.02
2023-03-07T09:53:35.584Z,97331.98
2023-03-07T09:56:07.156Z,97326.26
2023-03-07T09:58:38.910Z,97317.33
2023-03-07T10:01:08.467Z,97315.28
2023-03-07T10:03:48.464Z,97312.91
2023-03-07T10:06:26.688Z,97313.05
2023-03-07T10:08:55.111Z,97311.45
2023-03-07T10:11:43.281Z,97313.81
2023-03-07T10:14:39.166Z,97307.77
2023-03-07T10:17:44.600Z,97303.19
2023-03-07T10:20:24.771Z,97297.63
2023-03-07T10:22:59.913Z,97294.52
2023-03-07T10:25:53.999Z,97296.88
2023-03-07T10:28:27.483Z,97286.96
2023-03-07T10:30:59.157Z,97271.73
2023-03-07T10:33:29.158Z,97273.18
2023-03-07T10:36:08.343Z,97273.36
2023-03-07T10:39:13.016Z,97269.79
2023-03-07T10:41:40.724Z,97269.38
2023-03-07T10:44:17.766Z,97263.09
2023-03-07T10:46:55.305Z,97257.23
2023-03-07T10:49:37.859Z,97249.89
2023-03-07T10:52:20.068Z,97247.42
2023-03-07T10:54:47.668Z,97243.06
2023-03-07T10:57:19.176Z,97239.35
2023-03-07T10:59:48.561Z,97232.30
2023-03-07T11:02:26.966Z,97224.98
2023-03-07T11:04:55.269Z,97217.59
2023-03-07T11:07:34.703Z,97217.90
2023-03-07T11:10:33.159Z,97212.41
2023-03-07T11:13:17.025Z,97210.20
2023-03-07T11:15:45.234Z,97205.24
2023-03-07T11:18:31.179Z,97207.20
2023-03-07T11:20:59.268Z,97203.48
2023-03-07T11:23:29.003Z,97197.01
2023-03-07T11:25:58.788Z,97188.11
2023-03-07T11:28:30.522Z,97191.53
2023-03-07T11:31:07.661Z,97188.32
2023-03-07T11:33:58.491Z,97191.34
2023-03-07T11:36:32.035Z,97177.73
2023-03-07T11:39:14.752Z,97174.66
2023-03-07T11:41:46.969Z,97176.20
2023-03-07T11:44:29.832Z,97181.56
2023-03-07T11:47:38.534Z,97174.20
2023-03-07T11:50:12.804Z,97172.54
2023-03-07T11:52:59.557Z,97167.75
2023-03-07T11:55:36.518Z,97168.12
2023-03-07T11:58:35.528Z,97160.21
2023-03-07T12:01:16.024Z,97167.59
2023-03-07T12:03:55.868Z,97163.81
2023-03-07T12:06:50.494Z,97163.70
2023-03-07T12:09:36.987Z,97158.36
2023-03-07T12:12:10.508Z,97160.57
2023-03-07T12:14:50.323Z,97152.63
2023-03-07T12:17:29.363Z,97149.65
2023-03-07T12:20:35.040Z,97153.20
2023-03-07T12:23:15.600Z,97158.37
2023-03-07T12:25:46.200Z,97162.75
2023-03-07T12:28:22.173Z,97157.48
2023-03-07T12:30:56.339Z,97158.90
2023-03-07T12:33:29.497Z,97164.14
2023-03-07T12:36:04.859Z,97160.81
2023-03-07T12:38:57.972Z,97166.61
2023-03-07T12:41:44.283Z,97162.80
2023-03-07T12:44:30.004Z,97157.80
2023-03-07T12:47:20.134Z,97161.30
2023-03-07T12:50:00.560Z,97162.67
2023-03-07T12:52:34.435Z,97166.64
2023-03-07T12:55:36.395Z,97168.95
2023-03-07T12:58:13.372Z,97162.91
2023-03-07T13:00:46.668Z,97162.54
2023-03-07T13:03:48.756Z,97163.33
2023-03-07T13:06:21.078Z,97161.98
2023-03-07T13:08:54.659Z,97160.81
2023-03-07T13:11:25.102Z,97158.00
2023-03-07T13:13:53.810Z,97155.30
2023-03-07T13:16:42.209Z,97151.84
2023-03-07T13:19:35.237Z,97147.99
2023-03-07T13:22:15.241Z,97148.13
2023-03-07T13:24:44.275Z,97142.96
2023-03-07T13:27:17.534Z,97139.79
2023-03-07T13:30:10.425Z,97136.95
2023-03-07T13:32:56.418Z,97138.02
2023-03-07T13:35:24.074Z,97132.52
2023-03-07T13:37:57.262Z,97129.05
2023-03-07T13:40:36.979Z,97122.41
2023-03-07T13:43:09.875Z,97123.29
2023-03-07T13:45:37.456Z,97121.66
2023-03-07T13:48:12.228Z,97117.67
2023-03-07T13:50:42.956Z,97118.35
2023-03-07T13:53:16.087Z,97117.68
2023-03-07T13:55:50.882Z,97114.90
2023-03-07T13:58:24.124Z,97113.20
2023-03-07T14:01:04.200Z,97110.89
2023-03-07T14:03:46.052Z,97096.83
2023-03-07T14:06:17.056Z,97100.79
2023-03-07T14:08:45.742Z,97094.92
2023-03-07T14:11:21.156Z,97096.16
2023-03-07T14:14:05.599Z,97092.95
2023-03-07T14:16:54.139Z,97091.75
2023-03-07T14:20:09.590Z,97086.35
2023-03-07T14:22:40.951Z,97090.05
2023-03-07T14:25:17.524Z,97084.35
2023-03-07T14:28:00.220Z,97078.81
2023-03-07T14:30:31.412Z,97076.64
2023-03-07T14:33:00.160Z,97076.61
2023-03-07T14:35:42.315Z,97076.01
2023-03-07T14:38:20.232Z,97068.71
2023-03-07T14:41:15.042Z,97072.52
2023-03-07T14:43:52.893Z,97064.27
2023-03-07T14:46:45.234Z,97059.22
2023-03-07T14:49:42.488Z,97062.25
2023-03-07T14:52:24.676Z,97069.29
2023-03-07T14:55:00.184Z,97063.48
2023-03-07T14:57:33.280Z,97064.45
2023-03-07T15:00:15.458Z,97061.95
2023-03-07T15:02:54.155Z,97060.75
2023-03-07T15:05:29.222Z,97062.75
2023-03-07T15:07:57.250Z,97063.37
2023-03-07T15:10:28.350Z,97061.64
2023-03-07T15:12:57.217Z,97058.17
2023-03-07T15:15:35.801Z,97054.55
2023-03-07T15:18:07.352Z,97053.61
2023-03-07T15:20:35.261Z,97058.96
2023-03-07T15:23:06.036Z,97056.90
2023-03-07T15:25:38.669Z,97054.81
2023-03-07T15:28:16.898Z,97049.66
2023-03-07T15:30:48.145Z,97043.70
2023-03-07T15:33:18.578Z,97039.14
2023-03-07T15:36:08.426Z,97031.68
2023-03-07T15:38:36.143Z,97032.23
2023-03-07T15:41:24.224Z,97024.86
2023-03-07T15:44:12.088Z,97027.70
2023-03-07T15:46:51.627Z,97026.00
2023-03-07T15:49:41.595Z,97027.19
2023-03-07T15:52:27.715Z,97023.70
2023-03-07T15:54:57.716Z,97023.09
2023-03-07T15:57:34.321Z,97018.30
2023-03-07T16:00:08.458Z,97016.52
2023-03-07T16:02:39.735Z,97015.10
2023-03-07T16:05:28.105Z,97007.23
2023-03-07T16:07:59.608Z,97009.65
2023-03-07T16:10:52.745Z,97006.52
2023-03-07T16:13:34.597Z,97000.20
2023-03-07T16:16:13.668Z,96998.19
2023-03-07T16:18:42.415Z,96991.40
2023-03-07T16:21:14.959Z,96989.95
2023-03-07T16:23:44.677Z,96988.11
2023-03-07T16:26:16.225Z,96981.89
2023-03-07T16:28:44.452Z,96981.34
2023-03-07T16:31:13.372Z,96973.35
2023-03-07T16:33:40.967Z,96978.58
2023-03-07T16:36:10.371Z,96983.35
2023-03-07T16:38:38.395Z,96979.67
2023-03-07T16:41:16.684Z,96978.70
2023-03-07T16:43:45.575Z,96977.55
2023-03-07T16:46:18.078Z,96979.02
2023-03-07T16:48:45.812Z,96978.16
2023-03-07T16:51:18.879Z,96980.66
2023-03-07T16:53:47.706Z,96980.85
2023-03-07T16:56:29.756Z,96977.29
2023-03-07T16:58:58.602Z,96983.98
2023-03-07T17:01:26.299Z,96986.89
2023-03-07T17:03:56.366Z,96988.83
2023-03-07T17:06:37.218Z,96986.69
2023-03-07T17:09:11.274Z,96985.00
2023-03-07T17:11:40.726Z,96985.09
2023-03-07T17:14:08.702Z,96988.18
2023-03-07T17:16:40.101Z,96991.79
2023-03-07T17:19:33.976Z,96990.14
2023-03-07T17:22:03.017Z,96986.94
2023-03-07T17:24:31.091Z,96984.45
2023-03-07T17:27:00.380Z,96986.65
2023-03-07T17:29:30.735Z,96981.51
2023-03-07T17:31:58.408Z,96981.98
2023-03-07T17:34:31.435Z,96985.30
2023-03-07T17:37:00.351Z,96980.98
2023-03-07T17:39:32.281Z,96981.73
2023-03-07T17:42:00.768Z,96979.33
2023-03-07T17:44:29.179Z,96980.14
2023-03-07T17:46:57.220Z,96977.77
2023-03-07T17:49:28.125Z,96975.21
2023-03-07T17:51:55.689Z,96972.96
2023-03-07T17:54:23.265Z,96971.30
2023-03-07T17:56:51.025Z,96970.13
2023-03-07T17:59:18.693Z,96973.39
2023-03-07T18:01:46.308Z,96973.48
2023-03-07T18:04:14.025Z,96974.61
2023-03-07T18:06:41.697Z,96971.48
2023-03-07T18:09:09.438Z,96967.77
2023-03-07T18:11:37.076Z,96969.27
2023-03-07T18:14:04.696Z,96965.67
2023-03-07T18:16:32.748Z,96968.95
2023-03-07T18:19:02.952Z,96964.34
2023-03-07T18:21:32.490Z,96962.88
2023-03-07T18:24:00.151Z,96964.20
2023-03-07T18:26:28.098Z,96965.11
2023-03-07T18:28:56.525Z,96965.17
2023-03-07T18:31:28.241Z,96967.94
2023-03-07T18:33:56.244Z,96967.84
2023-03-07T18:36:25.327Z,96967.75
2023-03-07T18:38:52.947Z,96964.77
2023-03-07T18:41:22.457Z,96961.81
2023-03-07T18:43:50.744Z,96962.45
2023-03-07T18:46:20.367Z,96963.70
2023-03-07T18:48:48.212Z,96964.33
2023-03-07T18:51:18.396Z,96964.20
2023-03-07T18:53:46.047Z,96963.39
2023-03-07T18:56:15.858Z,96963.85
2023-03-07T18:58:44.565Z,96964.06
2023-03-07T19:01:14.870Z,96960.64
2023-03-07T19:03:43.227Z,96963.04
2023-03-07T19:06:12.399Z,96959.96
2023-03-07T19:08:40.540Z,96962.03
2023-03-07T19:11:10.859Z,96960.68
2023-03-07T19:13:39.309Z,96958.53
2023-03-07T19:16:23.443Z,96959.04
2023-03-07T19:18:51.381Z,96962.98
2023-03-07T19:21:21.547Z,96966.16
2023-03-07T19:23:49.821Z,96962.46
2023-03-07T19:26:18.840Z,96959.42
2023-03-07T19:28:48.576Z,96958.34
2023-03-07T19:31:21.510Z,96955.88
2023-03-07T19:33:50.531Z,96958.66
2023-03-07T19:36:23.035Z,96952.91
2023-03-07T19:38:54.015Z,96948.27
2023-03-07T19:41:23.679Z,96945.83
2023-03-07T19:43:51.723Z,96945.48
2023-03-07T19:46:20.259Z,96943.34
2023-03-07T19:48:48.060Z,96946.17
2023-03-07T19:51:24.195Z,96945.00
2023-03-07T19:53:55.335Z,96954.16
2023-03-07T19:56:30.153Z,96951.61
2023-03-07T19:59:00.102Z,96949.02
2023-03-07T20:01:28.976Z,96946.12
2023-03-07T20:03:57.083Z,96947.41
2023-03-07T20:06:27.539Z,96945.52
2023-03-07T20:08:55.971Z,96948.71
2023-03-07T20:11:27.347Z,96949.36
2023-03-07T20:13:57.286Z,96950.77
2023-03-07T20:16:27.666Z,96949.39
2023-03-07T20:18:57.081Z,96945.88
2023-03-07T20:21:27.976Z,96945.53
2023-03-07T20:23:59.571Z,96945.74
2023-03-07T20:26:33.942Z,96950.64
2023-03-07T20:29:02.625Z,96948.88
2023-03-07T20:31:30.486Z,96953.15
2023-03-07T20:33:59.926Z,96950.85
2023-03-07T20:36:36.793Z,96954.73
2023-03-07T20:39:07.899Z,96954.48
2023-03-07T20:41:36.176Z,96956.42
2023-03-07T20:44:05.805Z,96952.74
2023-03-07T20:46:35.013Z,96954.91
2023-03-07T20:49:03.263Z,96957.95
2023-03-07T20:51:33.208Z,96959.73
2023-03-07T20:54:02.940Z,96962.05
2023-03-07T20:56:32.126Z,96959.05
2023-03-07T20:59:00.047Z,96960.61
2023-03-07T21:01:30.051Z,96963.73
2023-03-07T21:04:06.184Z,96961.75
2023-03-07T21:06:34.913Z,96965.44
2023-03-07T21:09:07.847Z,96967.61
2023-03-07T21:11:40.646Z,96973.44
2023-03-07T21:14:08.501Z,96975.60
2023-03-07T21:16:36.364Z,96977.66
2023-03-07T21:19:05.995Z,96975.61
2023-03-07T21:21:34.836Z,96982.02
2023-03-07T21:24:03.151Z,96982.81
2023-03-07T21:26:33.048Z,96986.32
2023-03-07T21:29:00.668Z,96983.79
2023-03-07T21:31:31.007Z,96986.33
2023-03-07T21:34:04.059Z,96992.90
2023-03-07T21:36:31.979Z,97005.14
2023-03-07T21:39:00.347Z,97018.84
2023-03-07T21:41:27.960Z,97035.79
2023-03-07T21:43:56.533Z,97046.52
2023-03-07T21:46:24.747Z,97044.19
2023-03-07T21:48:52.447Z,97049.61
2023-03-07T21:51:20.608Z,97049.29
2023-03-07T21:53:48.399Z,97049.49
2023-03-07T21:56:17.144Z,97046.84
2023-03-07T21:58:49.157Z,97049.57
2023-03-07T22:01:19.855Z,97049.71
2023-03-07T22:03:47.761Z,97050.77
2023-03-07T22:06:16.750Z,97056.46
2023-03-07T22:08:44.495Z,97055.97
2023-03-07T22:11:12.961Z,97053.82
2023-03-07T22:13:41.771Z,97058.41
2023-03-07T22:16:15.114Z,97059.85
2023-03-07T22:18:42.966Z,97062.30
2023-03-07T22:21:17.101Z,97063.19
2023-03-07T22:23:44.780Z,97064.78
2023-03-07T22:26:12.910Z,97064.60
2023-03-07T22:28:41.129Z,97062.39
2023-03-07T22:31:11.360Z,97059.27
2023-03-07T22:33:40.250Z,97060.33
2023-03-07T22:36:11.315Z,97059.08
2023-03-07T22:38:39.638Z,97054.67
2023-03-07T22:41:11.382Z,97053.09
2023-03-07T22:43:39.100Z,97054.35
2023-03-07T22:46:07.882Z,97054.75
2023-03-07T22:48:36.165Z,97052.95
2023-03-07T22:51:04.491Z,97054.23
2023-03-07T22:53:33.444Z,97048.79
2023-03-07T22:56:01.512Z,97049.80
2023-03-07T22:58:29.912Z,97053.88
2023-03-07T23:00:57.549Z,97054.86
2023-03-07T23:03:25.314Z,97056.14
2023-03-07T23:05:53.031Z,97059.02
2023-03-07T23:08:20.688Z,97058.44
2023-03-07T23:10:48.330Z,97057.80
2023-03-07T23:13:17.216Z,97057.59
2023-03-07T23:15:44.950Z,97054.23
2023-03-07T23:18:12.618Z,97058.88
2023-03-07T23:20:40.234Z,97060.38
2023-03-07T23:23:07.807Z,97062.04
2023-03-07T23:25:41.200Z,97063.83
2023-03-07T23:28:09.488Z,97066.02
2023-03-07T23:30:38.611Z,97067.48
2023-03-07T23:33:07.045Z,97065.73
2023-03-07T23:35:35.327Z,97073.14
2023-03-07T23:38:03.764Z,97073.10
2023-03-07T23:40:31.434Z,97079.42
2023-03-07T23:42:59.051Z,97082.90
2023-03-07T23:45:26.844Z,97084.63
2023-03-07T23:47:54.736Z,97081.00
2023-03-07T23:50:22.581Z,97090.13
2023-03-07T23:52:50.188Z,97094.45
2023-03-07T23:55:17.856Z,97093.20
2023-03-07T23:57:46.500Z,97097.45
